Eastlake, Colorado
Current Conditions -  °F | °C
As of 11:15 PM on Sunday 21 Dec 2014 (Local Time) from KBJC Reporting Station
Overcast Overcast  
Wind Chill: 34°   Ceiling: 3700
Heat Index: 34°   Visibility: 10mi
Dew Point: 32°   Wind: 3mph
Humidity: 93%   Direction: 160°SSE
Pressure: 29.69"   Gusts: NA
Location:  39.92°N, 104.96°W
Report Text: KBJC 220615Z AUTO 16003KT 10SM BKN037 BKN046 OVC050 01/00 A2969 RMK AO2
Loading
Personal Weather Stations






























Interactive Weather Map New forecast layout! Learn more

10-Day Weather Forecast

Advertisements
Track Severe Weather on mobile